sensor_id;sensor_type;location;lat;lon;timestamp;temperature;humidity
22290;DHT22;11313;50.116;8.424;2024-03-22T00:00:07;26.20;41.40
22290;DHT22;11313;50.116;8.424;2024-03-22T00:02:39;26.20;41.40
22290;DHT22;11313;50.116;8.424;2024-03-22T00:05:05;26.20;41.40
22290;DHT22;11313;50.116;8.424;2024-03-22T00:07:31;26.20;41.50
22290;DHT22;11313;50.116;8.424;2024-03-22T00:09:56;26.10;41.50
22290;DHT22;11313;50.116;8.424;2024-03-22T00:12:22;26.10;41.50
22290;DHT22;11313;50.116;8.424;2024-03-22T00:14:48;26.10;42.10
22290;DHT22;11313;50.116;8.424;2024-03-22T00:17:14;26.10;41.50
22290;DHT22;11313;50.116;8.424;2024-03-22T00:19:39;26.20;41.50
22290;DHT22;11313;50.116;8.424;2024-03-22T00:22:05;26.20;41.50
22290;DHT22;11313;50.116;8.424;2024-03-22T00:24:30;26.10;41.40
22290;DHT22;11313;50.116;8.424;2024-03-22T00:26:56;26.10;41.40
22290;DHT22;11313;50.116;8.424;2024-03-22T00:29:21;26.20;42.10
22290;DHT22;11313;50.116;8.424;2024-03-22T00:31:47;26.20;41.40
22290;DHT22;11313;50.116;8.424;2024-03-22T00:34:13;26.20;41.40
22290;DHT22;11313;50.116;8.424;2024-03-22T00:36:38;26.20;41.30
22290;DHT22;11313;50.116;8.424;2024-03-22T00:39:04;26.20;41.30
22290;DHT22;11313;50.116;8.424;2024-03-22T00:41:29;26.20;41.30
22290;DHT22;11313;50.116;8.424;2024-03-22T00:43:55;26.20;41.30
22290;DHT22;11313;50.116;8.424;2024-03-22T00:46:20;26.30;41.40
22290;DHT22;11313;50.116;8.424;2024-03-22T00:48:46;26.30;41.30
22290;DHT22;11313;50.116;8.424;2024-03-22T00:51:11;26.30;41.30
22290;DHT22;11313;50.116;8.424;2024-03-22T00:53:37;26.30;41.20
22290;DHT22;11313;50.116;8.424;2024-03-22T00:56:03;26.30;41.20
22290;DHT22;11313;50.116;8.424;2024-03-22T00:58:29;26.30;41.10
22290;DHT22;11313;50.116;8.424;2024-03-22T01:00:55;26.30;41.10
22290;DHT22;11313;50.116;8.424;2024-03-22T01:03:21;26.30;41.10
22290;DHT22;11313;50.116;8.424;2024-03-22T01:05:47;26.40;41.10
22290;DHT22;11313;50.116;8.424;2024-03-22T01:08:12;26.40;41.10
22290;DHT22;11313;50.116;8.424;2024-03-22T01:10:38;26.40;41.00
22290;DHT22;11313;50.116;8.424;2024-03-22T01:13:03;26.40;41.00
22290;DHT22;11313;50.116;8.424;2024-03-22T01:15:29;26.40;40.90
22290;DHT22;11313;50.116;8.424;2024-03-22T01:17:55;26.40;41.00
22290;DHT22;11313;50.116;8.424;2024-03-22T01:20:21;26.40;40.90
22290;DHT22;11313;50.116;8.424;2024-03-22T01:22:46;26.50;40.90
22290;DHT22;11313;50.116;8.424;2024-03-22T01:25:12;26.50;40.90
22290;DHT22;11313;50.116;8.424;2024-03-22T01:27:38;26.50;40.90
22290;DHT22;11313;50.116;8.424;2024-03-22T01:30:04;26.50;40.90
22290;DHT22;11313;50.116;8.424;2024-03-22T01:32:29;26.50;40.90
22290;DHT22;11313;50.116;8.424;2024-03-22T01:34:56;26.50;40.90
22290;DHT22;11313;50.116;8.424;2024-03-22T01:37:22;26.50;40.90
22290;DHT22;11313;50.116;8.424;2024-03-22T01:39:48;26.50;40.90
22290;DHT22;11313;50.116;8.424;2024-03-22T01:42:13;26.50;41.00
22290;DHT22;11313;50.116;8.424;2024-03-22T01:44:39;26.40;40.90
22290;DHT22;11313;50.116;8.424;2024-03-22T01:47:04;26.50;41.00
22290;DHT22;11313;50.116;8.424;2024-03-22T01:49:30;26.50;40.90
22290;DHT22;11313;50.116;8.424;2024-03-22T01:51:56;26.40;40.90
22290;DHT22;11313;50.116;8.424;2024-03-22T01:54:21;26.40;40.90
22290;DHT22;11313;50.116;8.424;2024-03-22T01:56:47;26.50;41.00
22290;DHT22;11313;50.116;8.424;2024-03-22T01:59:13;26.40;40.90
22290;DHT22;11313;50.116;8.424;2024-03-22T02:01:39;26.40;40.90
22290;DHT22;11313;50.116;8.424;2024-03-22T02:04:05;26.40;41.60
22290;DHT22;11313;50.116;8.424;2024-03-22T02:06:31;26.40;40.90
22290;DHT22;11313;50.116;8.424;2024-03-22T02:08:58;26.40;40.90
22290;DHT22;11313;50.116;8.424;2024-03-22T02:11:24;26.40;41.00
22290;DHT22;11313;50.116;8.424;2024-03-22T02:13:50;26.40;41.00
22290;DHT22;11313;50.116;8.424;2024-03-22T02:16:16;26.40;41.10
22290;DHT22;11313;50.116;8.424;2024-03-22T02:18:42;26.40;41.10
22290;DHT22;11313;50.116;8.424;2024-03-22T02:21:07;26.40;41.10
22290;DHT22;11313;50.116;8.424;2024-03-22T02:23:34;26.40;41.10
22290;DHT22;11313;50.116;8.424;2024-03-22T02:26:01;26.30;41.00
22290;DHT22;11313;50.116;8.424;2024-03-22T02:28:26;26.30;41.00
22290;DHT22;11313;50.116;8.424;2024-03-22T02:30:52;26.30;41.00
22290;DHT22;11313;50.116;8.424;2024-03-22T02:33:18;26.30;41.00
22290;DHT22;11313;50.116;8.424;2024-03-22T02:35:46;26.30;41.10
22290;DHT22;11313;50.116;8.424;2024-03-22T02:38:11;26.30;41.10
22290;DHT22;11313;50.116;8.424;2024-03-22T02:40:37;26.30;41.10
22290;DHT22;11313;50.116;8.424;2024-03-22T02:43:02;26.30;41.10
22290;DHT22;11313;50.116;8.424;2024-03-22T02:45:28;26.30;41.10
22290;DHT22;11313;50.116;8.424;2024-03-22T02:47:55;26.30;41.10
22290;DHT22;11313;50.116;8.424;2024-03-22T02:50:21;26.30;41.10
22290;DHT22;11313;50.116;8.424;2024-03-22T02:52:48;26.30;41.10
22290;DHT22;11313;50.116;8.424;2024-03-22T02:55:14;26.30;41.00
22290;DHT22;11313;50.116;8.424;2024-03-22T02:57:39;26.30;41.00
22290;DHT22;11313;50.116;8.424;2024-03-22T03:00:05;26.30;41.00
22290;DHT22;11313;50.116;8.424;2024-03-22T03:02:31;26.30;41.00
22290;DHT22;11313;50.116;8.424;2024-03-22T03:04:57;26.30;41.00
22290;DHT22;11313;50.116;8.424;2024-03-22T03:07:25;26.30;41.00
22290;DHT22;11313;50.116;8.424;2024-03-22T03:09:51;26.30;40.90
22290;DHT22;11313;50.116;8.424;2024-03-22T03:12:17;26.40;41.00
22290;DHT22;11313;50.116;8.424;2024-03-22T03:14:42;26.40;41.00
22290;DHT22;11313;50.116;8.424;2024-03-22T03:17:08;26.40;41.00
22290;DHT22;11313;50.116;8.424;2024-03-22T03:19:33;26.40;40.90
22290;DHT22;11313;50.116;8.424;2024-03-22T03:21:59;26.40;40.90
22290;DHT22;11313;50.116;8.424;2024-03-22T03:24:25;26.40;40.90
22290;DHT22;11313;50.116;8.424;2024-03-22T03:26:51;26.40;40.90
22290;DHT22;11313;50.116;8.424;2024-03-22T03:29:17;26.40;40.90
22290;DHT22;11313;50.116;8.424;2024-03-22T03:31:42;26.40;40.90
22290;DHT22;11313;50.116;8.424;2024-03-22T03:34:08;26.40;40.80
22290;DHT22;11313;50.116;8.424;2024-03-22T03:36:33;26.40;40.90
22290;DHT22;11313;50.116;8.424;2024-03-22T03:38:59;26.40;40.90
22290;DHT22;11313;50.116;8.424;2024-03-22T03:41:24;26.40;40.80
22290;DHT22;11313;50.116;8.424;2024-03-22T03:43:50;26.40;40.90
22290;DHT22;11313;50.116;8.424;2024-03-22T03:46:15;26.50;40.90
22290;DHT22;11313;50.116;8.424;2024-03-22T03:48:41;26.50;40.80
22290;DHT22;11313;50.116;8.424;2024-03-22T03:51:06;26.50;40.80
22290;DHT22;11313;50.116;8.424;2024-03-22T03:53:32;26.50;40.80
22290;DHT22;11313;50.116;8.424;2024-03-22T03:55:57;26.50;40.70
22290;DHT22;11313;50.116;8.424;2024-03-22T03:58:23;26.50;40.70
22290;DHT22;11313;50.116;8.424;2024-03-22T04:00:49;26.50;40.70
22290;DHT22;11313;50.116;8.424;2024-03-22T04:03:14;26.50;40.70
22290;DHT22;11313;50.116;8.424;2024-03-22T04:05:41;26.60;40.70
22290;DHT22;11313;50.116;8.424;2024-03-22T04:08:07;26.60;40.70
22290;DHT22;11313;50.116;8.424;2024-03-22T04:10:32;26.60;40.60
22290;DHT22;11313;50.116;8.424;2024-03-22T04:12:58;26.60;40.60
22290;DHT22;11313;50.116;8.424;2024-03-22T04:15:23;26.60;40.50
22290;DHT22;11313;50.116;8.424;2024-03-22T04:17:49;26.60;40.50
22290;DHT22;11313;50.116;8.424;2024-03-22T04:20:15;26.60;40.40
22290;DHT22;11313;50.116;8.424;2024-03-22T04:22:40;26.60;40.40
22290;DHT22;11313;50.116;8.424;2024-03-22T04:25:06;26.70;40.50
22290;DHT22;11313;50.116;8.424;2024-03-22T04:27:35;26.70;40.50
22290;DHT22;11313;50.116;8.424;2024-03-22T04:30:01;26.70;40.40
22290;DHT22;11313;50.116;8.424;2024-03-22T04:32:27;26.70;40.40
22290;DHT22;11313;50.116;8.424;2024-03-22T04:34:52;26.70;40.30
22290;DHT22;11313;50.116;8.424;2024-03-22T04:37:18;26.70;40.30
22290;DHT22;11313;50.116;8.424;2024-03-22T04:39:46;26.70;40.30
22290;DHT22;11313;50.116;8.424;2024-03-22T04:42:11;26.70;40.30
22290;DHT22;11313;50.116;8.424;2024-03-22T04:44:37;26.70;40.30
22290;DHT22;11313;50.116;8.424;2024-03-22T04:47:03;26.80;40.30
22290;DHT22;11313;50.116;8.424;2024-03-22T04:49:28;26.70;40.30
22290;DHT22;11313;50.116;8.424;2024-03-22T04:51:54;26.80;40.30
22290;DHT22;11313;50.116;8.424;2024-03-22T04:54:19;26.70;40.30
22290;DHT22;11313;50.116;8.424;2024-03-22T04:56:45;26.80;40.30
22290;DHT22;11313;50.116;8.424;2024-03-22T04:59:11;26.70;40.30
22290;DHT22;11313;50.116;8.424;2024-03-22T05:01:36;26.70;40.30
22290;DHT22;11313;50.116;8.424;2024-03-22T05:04:02;26.70;40.30
22290;DHT22;11313;50.116;8.424;2024-03-22T05:06:27;26.70;40.30
22290;DHT22;11313;50.116;8.424;2024-03-22T05:08:53;26.70;40.30
22290;DHT22;11313;50.116;8.424;2024-03-22T05:11:18;26.70;40.40
22290;DHT22;11313;50.116;8.424;2024-03-22T05:13:44;26.70;40.40
22290;DHT22;11313;50.116;8.424;2024-03-22T05:16:09;26.70;40.40
22290;DHT22;11313;50.116;8.424;2024-03-22T05:18:36;26.70;40.40
22290;DHT22;11313;50.116;8.424;2024-03-22T05:21:02;26.70;40.40
22290;DHT22;11313;50.116;8.424;2024-03-22T05:23:28;26.70;40.50
22290;DHT22;11313;50.116;8.424;2024-03-22T05:25:54;26.60;40.40
22290;DHT22;11313;50.116;8.424;2024-03-22T05:28:19;26.60;40.40
22290;DHT22;11313;50.116;8.424;2024-03-22T05:30:45;26.70;40.60
22290;DHT22;11313;50.116;8.424;2024-03-22T05:33:11;26.60;40.40
22290;DHT22;11313;50.116;8.424;2024-03-22T05:35:37;26.70;40.50
22290;DHT22;11313;50.116;8.424;2024-03-22T05:38:03;26.60;40.50
22290;DHT22;11313;50.116;8.424;2024-03-22T05:40:30;26.60;40.50
22290;DHT22;11313;50.116;8.424;2024-03-22T05:42:56;26.60;40.60
22290;DHT22;11313;50.116;8.424;2024-03-22T05:45:21;26.60;40.60
22290;DHT22;11313;50.116;8.424;2024-03-22T05:47:47;26.60;40.60
22290;DHT22;11313;50.116;8.424;2024-03-22T05:50:13;26.60;40.60
22290;DHT22;11313;50.116;8.424;2024-03-22T05:52:40;26.60;40.60
22290;DHT22;11313;50.116;8.424;2024-03-22T05:55:05;26.60;40.60
22290;DHT22;11313;50.116;8.424;2024-03-22T05:57:31;26.60;40.60
22290;DHT22;11313;50.116;8.424;2024-03-22T05:59:57;26.60;40.70
22290;DHT22;11313;50.116;8.424;2024-03-22T06:02:22;26.50;40.70
22290;DHT22;11313;50.116;8.424;2024-03-22T06:04:48;26.50;40.70
22290;DHT22;11313;50.116;8.424;2024-03-22T06:07:14;26.50;40.70
22290;DHT22;11313;50.116;8.424;2024-03-22T06:09:41;26.50;40.70
22290;DHT22;11313;50.116;8.424;2024-03-22T06:12:16;26.50;40.70
22290;DHT22;11313;50.116;8.424;2024-03-22T06:14:43;26.50;40.70
22290;DHT22;11313;50.116;8.424;2024-03-22T06:17:10;26.50;40.70
22290;DHT22;11313;50.116;8.424;2024-03-22T06:19:36;26.50;40.70
22290;DHT22;11313;50.116;8.424;2024-03-22T06:22:02;26.60;40.80
22290;DHT22;11313;50.116;8.424;2024-03-22T06:24:28;26.60;40.80
22290;DHT22;11313;50.116;8.424;2024-03-22T06:26:54;26.50;40.70
22290;DHT22;11313;50.116;8.424;2024-03-22T06:29:19;26.50;40.70
22290;DHT22;11313;50.116;8.424;2024-03-22T06:31:46;26.50;40.70
22290;DHT22;11313;50.116;8.424;2024-03-22T06:34:11;26.60;40.70
22290;DHT22;11313;50.116;8.424;2024-03-22T06:36:37;26.60;40.70
22290;DHT22;11313;50.116;8.424;2024-03-22T06:39:02;26.60;40.60
22290;DHT22;11313;50.116;8.424;2024-03-22T06:41:35;26.60;40.60
22290;DHT22;11313;50.116;8.424;2024-03-22T06:44:01;26.60;40.50
22290;DHT22;11313;50.116;8.424;2024-03-22T06:46:27;26.60;40.50
22290;DHT22;11313;50.116;8.424;2024-03-22T06:48:53;26.60;40.50
22290;DHT22;11313;50.116;8.424;2024-03-22T06:51:19;26.60;40.40
22290;DHT22;11313;50.116;8.424;2024-03-22T06:53:44;26.60;40.40
22290;DHT22;11313;50.116;8.424;2024-03-22T06:56:11;26.60;40.40
22290;DHT22;11313;50.116;8.424;2024-03-22T06:58:38;26.70;40.40
22290;DHT22;11313;50.116;8.424;2024-03-22T07:01:04;26.70;40.40
22290;DHT22;11313;50.116;8.424;2024-03-22T07:03:29;26.70;40.30
22290;DHT22;11313;50.116;8.424;2024-03-22T07:05:55;26.80;40.40
22290;DHT22;11313;50.116;8.424;2024-03-22T07:08:21;26.70;40.30
22290;DHT22;11313;50.116;8.424;2024-03-22T07:10:46;26.80;40.30
22290;DHT22;11313;50.116;8.424;2024-03-22T07:13:12;26.80;40.30
22290;DHT22;11313;50.116;8.424;2024-03-22T07:15:37;26.80;40.30
22290;DHT22;11313;50.116;8.424;2024-03-22T07:18:03;26.80;40.30
22290;DHT22;11313;50.116;8.424;2024-03-22T07:20:30;26.80;40.20
22290;DHT22;11313;50.116;8.424;2024-03-22T07:22:56;26.90;40.30
22290;DHT22;11313;50.116;8.424;2024-03-22T07:25:21;26.80;40.20
22290;DHT22;11313;50.116;8.424;2024-03-22T07:27:47;26.90;40.30
22290;DHT22;11313;50.116;8.424;2024-03-22T07:30:14;26.80;40.20
22290;DHT22;11313;50.116;8.424;2024-03-22T07:32:40;26.80;40.20
22290;DHT22;11313;50.116;8.424;2024-03-22T07:35:05;26.80;40.20
22290;DHT22;11313;50.116;8.424;2024-03-22T07:37:32;26.80;40.20
22290;DHT22;11313;50.116;8.424;2024-03-22T07:39:59;26.90;40.30
22290;DHT22;11313;50.116;8.424;2024-03-22T07:42:25;26.80;40.30
22290;DHT22;11313;50.116;8.424;2024-03-22T07:44:50;26.80;40.30
22290;DHT22;11313;50.116;8.424;2024-03-22T07:47:16;26.80;40.30
22290;DHT22;11313;50.116;8.424;2024-03-22T07:49:42;26.80;40.40
22290;DHT22;11313;50.116;8.424;2024-03-22T07:52:07;26.80;40.40
22290;DHT22;11313;50.116;8.424;2024-03-22T07:54:33;26.80;40.40
22290;DHT22;11313;50.116;8.424;2024-03-22T07:56:58;26.80;40.40
22290;DHT22;11313;50.116;8.424;2024-03-22T07:59:24;26.80;40.40
22290;DHT22;11313;50.116;8.424;2024-03-22T08:01:50;26.80;40.50
22290;DHT22;11313;50.116;8.424;2024-03-22T08:04:16;26.70;40.40
22290;DHT22;11313;50.116;8.424;2024-03-22T08:06:41;26.70;40.50
22290;DHT22;11313;50.116;8.424;2024-03-22T08:09:07;26.70;40.50
22290;DHT22;11313;50.116;8.424;2024-03-22T08:11:33;26.70;40.50
22290;DHT22;11313;50.116;8.424;2024-03-22T08:13:59;26.70;40.50
22290;DHT22;11313;50.116;8.424;2024-03-22T08:16:29;26.70;40.50
22290;DHT22;11313;50.116;8.424;2024-03-22T08:18:55;26.70;40.60
22290;DHT22;11313;50.116;8.424;2024-03-22T08:21:22;26.70;40.60
22290;DHT22;11313;50.116;8.424;2024-03-22T08:23:48;26.70;40.60
22290;DHT22;11313;50.116;8.424;2024-03-22T08:26:13;26.70;40.60
22290;DHT22;11313;50.116;8.424;2024-03-22T08:28:39;26.60;40.50
22290;DHT22;11313;50.116;8.424;2024-03-22T08:31:05;26.60;40.50
22290;DHT22;11313;50.116;8.424;2024-03-22T08:33:31;26.60;40.60
22290;DHT22;11313;50.116;8.424;2024-03-22T08:35:56;26.70;40.70
22290;DHT22;11313;50.116;8.424;2024-03-22T08:38:22;26.60;40.50
22290;DHT22;11313;50.116;8.424;2024-03-22T08:40:50;26.60;40.60
22290;DHT22;11313;50.116;8.424;2024-03-22T08:43:15;26.60;40.60
22290;DHT22;11313;50.116;8.424;2024-03-22T08:45:42;26.70;40.60
22290;DHT22;11313;50.116;8.424;2024-03-22T08:48:07;26.60;40.50
22290;DHT22;11313;50.116;8.424;2024-03-22T08:50:33;26.70;40.60
22290;DHT22;11313;50.116;8.424;2024-03-22T08:52:59;26.60;40.60
22290;DHT22;11313;50.116;8.424;2024-03-22T08:55:28;26.60;40.60
22290;DHT22;11313;50.116;8.424;2024-03-22T08:57:54;26.70;40.60
22290;DHT22;11313;50.116;8.424;2024-03-22T09:00:19;26.60;40.60
22290;DHT22;11313;50.116;8.424;2024-03-22T09:02:45;26.70;40.70
22290;DHT22;11313;50.116;8.424;2024-03-22T09:05:11;26.60;40.60
22290;DHT22;11313;50.116;8.424;2024-03-22T09:07:36;26.60;40.60
22290;DHT22;11313;50.116;8.424;2024-03-22T09:10:02;26.70;40.70
22290;DHT22;11313;50.116;8.424;2024-03-22T09:12:28;26.70;40.70
22290;DHT22;11313;50.116;8.424;2024-03-22T09:14:53;26.70;40.60
22290;DHT22;11313;50.116;8.424;2024-03-22T09:17:19;26.70;40.60
22290;DHT22;11313;50.116;8.424;2024-03-22T09:19:44;26.70;40.70
22290;DHT22;11313;50.116;8.424;2024-03-22T09:22:10;26.70;40.70
22290;DHT22;11313;50.116;8.424;2024-03-22T09:24:36;26.70;40.80
22290;DHT22;11313;50.116;8.424;2024-03-22T09:27:01;26.70;40.70
22290;DHT22;11313;50.116;8.424;2024-03-22T09:29:29;26.70;40.70
22290;DHT22;11313;50.116;8.424;2024-03-22T09:31:55;26.60;40.70
22290;DHT22;11313;50.116;8.424;2024-03-22T09:34:20;26.60;40.70
22290;DHT22;11313;50.116;8.424;2024-03-22T09:36:46;26.70;40.70
22290;DHT22;11313;50.116;8.424;2024-03-22T09:39:11;26.60;40.60
22290;DHT22;11313;50.116;8.424;2024-03-22T09:41:42;26.60;40.70
22290;DHT22;11313;50.116;8.424;2024-03-22T09:44:13;26.60;40.80
22290;DHT22;11313;50.116;8.424;2024-03-22T09:46:40;26.60;40.80
22290;DHT22;11313;50.116;8.424;2024-03-22T09:49:09;26.60;40.80
22290;DHT22;11313;50.116;8.424;2024-03-22T09:51:36;26.60;40.70
22290;DHT22;11313;50.116;8.424;2024-03-22T09:54:02;26.60;40.80
22290;DHT22;11313;50.116;8.424;2024-03-22T09:56:30;26.60;40.70
22290;DHT22;11313;50.116;8.424;2024-03-22T09:58:57;26.60;40.80
22290;DHT22;11313;50.116;8.424;2024-03-22T10:01:24;26.60;40.80
22290;DHT22;11313;50.116;8.424;2024-03-22T10:03:52;26.60;40.80
22290;DHT22;11313;50.116;8.424;2024-03-22T10:06:18;26.60;41.10
22290;DHT22;11313;50.116;8.424;2024-03-22T10:08:44;26.60;40.90
22290;DHT22;11313;50.116;8.424;2024-03-22T10:11:10;26.60;40.90
22290;DHT22;11313;50.116;8.424;2024-03-22T10:13:36;26.60;40.90
22290;DHT22;11313;50.116;8.424;2024-03-22T10:16:02;26.50;40.80
22290;DHT22;11313;50.116;8.424;2024-03-22T10:18:28;26.50;40.80
22290;DHT22;11313;50.116;8.424;2024-03-22T10:21:00;26.50;40.90
22290;DHT22;11313;50.116;8.424;2024-03-22T10:23:26;26.50;40.90
22290;DHT22;11313;50.116;8.424;2024-03-22T10:25:52;26.50;40.80
22290;DHT22;11313;50.116;8.424;2024-03-22T10:28:17;26.50;40.90
22290;DHT22;11313;50.116;8.424;2024-03-22T10:30:44;26.50;41.00
22290;DHT22;11313;50.116;8.424;2024-03-22T10:33:13;26.50;41.60
22290;DHT22;11313;50.116;8.424;2024-03-22T10:35:39;26.50;40.90
22290;DHT22;11313;50.116;8.424;2024-03-22T10:38:06;26.50;41.00
22290;DHT22;11313;50.116;8.424;2024-03-22T10:40:33;26.50;41.00
22290;DHT22;11313;50.116;8.424;2024-03-22T10:43:00;26.50;41.00
22290;DHT22;11313;50.116;8.424;2024-03-22T10:45:29;26.50;41.00
22290;DHT22;11313;50.116;8.424;2024-03-22T10:47:55;26.50;41.00
22290;DHT22;11313;50.116;8.424;2024-03-22T10:50:22;26.40;41.00
22290;DHT22;11313;50.116;8.424;2024-03-22T10:52:54;26.40;41.00
22290;DHT22;11313;50.116;8.424;2024-03-22T10:55:32;26.40;41.00
22290;DHT22;11313;50.116;8.424;2024-03-22T10:57:58;26.40;41.00
22290;DHT22;11313;50.116;8.424;2024-03-22T11:00:34;26.40;41.00
22290;DHT22;11313;50.116;8.424;2024-03-22T11:03:04;26.40;41.00
22290;DHT22;11313;50.116;8.424;2024-03-22T11:05:30;26.40;41.10
22290;DHT22;11313;50.116;8.424;2024-03-22T11:08:03;26.40;41.10
22290;DHT22;11313;50.116;8.424;2024-03-22T11:10:35;26.40;41.10
22290;DHT22;11313;50.116;8.424;2024-03-22T11:13:04;26.40;41.10
22290;DHT22;11313;50.116;8.424;2024-03-22T11:15:31;26.40;41.10
22290;DHT22;11313;50.116;8.424;2024-03-22T11:17:57;26.40;41.10
22290;DHT22;11313;50.116;8.424;2024-03-22T11:20:23;26.40;41.10
22290;DHT22;11313;50.116;8.424;2024-03-22T11:22:50;26.40;41.10
22290;DHT22;11313;50.116;8.424;2024-03-22T11:25:16;26.50;41.00
22290;DHT22;11313;50.116;8.424;2024-03-22T11:27:41;26.50;41.00
22290;DHT22;11313;50.116;8.424;2024-03-22T11:30:07;26.50;41.00
22290;DHT22;11313;50.116;8.424;2024-03-22T11:32:33;26.50;40.90
22290;DHT22;11313;50.116;8.424;2024-03-22T11:35:09;26.50;40.90
22290;DHT22;11313;50.116;8.424;2024-03-22T11:37:35;26.50;40.90
22290;DHT22;11313;50.116;8.424;2024-03-22T11:40:01;26.60;40.90
22290;DHT22;11313;50.116;8.424;2024-03-22T11:42:31;26.60;40.90
22290;DHT22;11313;50.116;8.424;2024-03-22T11:44:58;26.60;40.70
22290;DHT22;11313;50.116;8.424;2024-03-22T11:47:24;26.70;40.70
22290;DHT22;11313;50.116;8.424;2024-03-22T11:49:50;26.70;40.70
22290;DHT22;11313;50.116;8.424;2024-03-22T11:52:16;26.70;40.70
22290;DHT22;11313;50.116;8.424;2024-03-22T11:54:42;26.70;40.70
22290;DHT22;11313;50.116;8.424;2024-03-22T11:57:09;26.70;40.70
22290;DHT22;11313;50.116;8.424;2024-03-22T11:59:35;26.70;40.70
22290;DHT22;11313;50.116;8.424;2024-03-22T12:02:00;26.70;40.70
22290;DHT22;11313;50.116;8.424;2024-03-22T12:04:26;26.80;40.60
22290;DHT22;11313;50.116;8.424;2024-03-22T12:06:51;26.80;40.70
22290;DHT22;11313;50.116;8.424;2024-03-22T12:09:18;26.80;40.70
22290;DHT22;11313;50.116;8.424;2024-03-22T12:11:44;26.80;40.60
22290;DHT22;11313;50.116;8.424;2024-03-22T12:14:09;26.80;40.60
22290;DHT22;11313;50.116;8.424;2024-03-22T12:16:35;26.80;40.60
22290;DHT22;11313;50.116;8.424;2024-03-22T12:19:01;26.80;40.60
22290;DHT22;11313;50.116;8.424;2024-03-22T12:21:28;26.80;40.60
22290;DHT22;11313;50.116;8.424;2024-03-22T12:23:54;26.80;40.60
22290;DHT22;11313;50.116;8.424;2024-03-22T12:26:19;26.80;40.70
22290;DHT22;11313;50.116;8.424;2024-03-22T12:28:45;26.80;40.60
22290;DHT22;11313;50.116;8.424;2024-03-22T12:31:11;26.80;40.70
22290;DHT22;11313;50.116;8.424;2024-03-22T12:33:36;26.80;40.70
22290;DHT22;11313;50.116;8.424;2024-03-22T12:36:03;26.80;40.60
22290;DHT22;11313;50.116;8.424;2024-03-22T12:38:29;26.80;40.60
22290;DHT22;11313;50.116;8.424;2024-03-22T12:40:55;26.80;40.70
22290;DHT22;11313;50.116;8.424;2024-03-22T12:43:20;26.80;40.70
22290;DHT22;11313;50.116;8.424;2024-03-22T12:45:46;26.80;40.60
22290;DHT22;11313;50.116;8.424;2024-03-22T12:48:12;26.80;40.60
22290;DHT22;11313;50.116;8.424;2024-03-22T12:50:38;26.80;40.60
22290;DHT22;11313;50.116;8.424;2024-03-22T12:53:04;26.80;40.60
22290;DHT22;11313;50.116;8.424;2024-03-22T12:55:30;26.80;40.70
22290;DHT22;11313;50.116;8.424;2024-03-22T12:57:57;26.80;40.70
22290;DHT22;11313;50.116;8.424;2024-03-22T13:00:22;26.80;40.70
22290;DHT22;11313;50.116;8.424;2024-03-22T13:02:48;26.80;40.70
22290;DHT22;11313;50.116;8.424;2024-03-22T13:05:13;26.80;40.70
22290;DHT22;11313;50.116;8.424;2024-03-22T13:07:40;26.80;40.80
22290;DHT22;11313;50.116;8.424;2024-03-22T13:10:07;26.70;40.80
22290;DHT22;11313;50.116;8.424;2024-03-22T13:12:33;26.70;40.80
22290;DHT22;11313;50.116;8.424;2024-03-22T13:15:00;26.70;40.80
22290;DHT22;11313;50.116;8.424;2024-03-22T13:17:26;26.70;40.80
22290;DHT22;11313;50.116;8.424;2024-03-22T13:19:52;26.70;40.80
22290;DHT22;11313;50.116;8.424;2024-03-22T13:22:17;26.70;40.90
22290;DHT22;11313;50.116;8.424;2024-03-22T13:24:47;26.60;40.80
22290;DHT22;11313;50.116;8.424;2024-03-22T13:27:13;26.70;40.80
22290;DHT22;11313;50.116;8.424;2024-03-22T13:29:39;26.70;40.80
22290;DHT22;11313;50.116;8.424;2024-03-22T13:32:05;26.60;40.90
22290;DHT22;11313;50.116;8.424;2024-03-22T13:34:36;26.60;40.90
22290;DHT22;11313;50.116;8.424;2024-03-22T13:37:02;26.60;40.90
22290;DHT22;11313;50.116;8.424;2024-03-22T13:39:28;26.60;40.90
22290;DHT22;11313;50.116;8.424;2024-03-22T13:41:58;26.60;41.00
22290;DHT22;11313;50.116;8.424;2024-03-22T13:44:24;26.60;41.00
22290;DHT22;11313;50.116;8.424;2024-03-22T13:46:52;26.60;41.00
22290;DHT22;11313;50.116;8.424;2024-03-22T13:49:19;26.60;41.00
22290;DHT22;11313;50.116;8.424;2024-03-22T13:51:49;26.60;41.00
22290;DHT22;11313;50.116;8.424;2024-03-22T13:54:15;26.60;41.00
22290;DHT22;11313;50.116;8.424;2024-03-22T13:56:40;26.60;41.00
22290;DHT22;11313;50.116;8.424;2024-03-22T13:59:06;26.60;41.10
22290;DHT22;11313;50.116;8.424;2024-03-22T14:01:37;26.50;41.00
22290;DHT22;11313;50.116;8.424;2024-03-22T14:04:04;26.50;41.00
22290;DHT22;11313;50.116;8.424;2024-03-22T14:06:30;26.50;41.00
22290;DHT22;11313;50.116;8.424;2024-03-22T14:08:57;26.50;41.10
22290;DHT22;11313;50.116;8.424;2024-03-22T14:11:29;26.50;41.10
22290;DHT22;11313;50.116;8.424;2024-03-22T14:13:59;26.40;41.10
22290;DHT22;11313;50.116;8.424;2024-03-22T14:16:25;26.40;41.20
22290;DHT22;11313;50.116;8.424;2024-03-22T14:18:51;26.40;41.20
22290;DHT22;11313;50.116;8.424;2024-03-22T14:21:18;26.40;41.20
22290;DHT22;11313;50.116;8.424;2024-03-22T14:23:47;26.40;41.20
22290;DHT22;11313;50.116;8.424;2024-03-22T14:26:13;26.40;41.30
22290;DHT22;11313;50.116;8.424;2024-03-22T14:28:39;26.40;41.30
22290;DHT22;11313;50.116;8.424;2024-03-22T14:31:11;26.40;41.30
22290;DHT22;11313;50.116;8.424;2024-03-22T14:33:38;26.40;41.30
22290;DHT22;11313;50.116;8.424;2024-03-22T14:36:05;26.30;41.40
22290;DHT22;11313;50.116;8.424;2024-03-22T14:38:32;26.30;41.40
22290;DHT22;11313;50.116;8.424;2024-03-22T14:40:57;26.30;41.50
22290;DHT22;11313;50.116;8.424;2024-03-22T14:43:24;26.30;41.50
22290;DHT22;11313;50.116;8.424;2024-03-22T14:45:50;26.30;41.50
22290;DHT22;11313;50.116;8.424;2024-03-22T14:48:21;26.30;41.50
22290;DHT22;11313;50.116;8.424;2024-03-22T14:50:48;26.30;41.50
22290;DHT22;11313;50.116;8.424;2024-03-22T14:53:14;26.30;41.60
22290;DHT22;11313;50.116;8.424;2024-03-22T14:55:51;26.30;41.60
22290;DHT22;11313;50.116;8.424;2024-03-22T14:58:17;26.30;41.60
22290;DHT22;11313;50.116;8.424;2024-03-22T15:00:51;26.20;41.50
22290;DHT22;11313;50.116;8.424;2024-03-22T15:03:17;26.20;41.60
22290;DHT22;11313;50.116;8.424;2024-03-22T15:05:42;26.20;41.60
22290;DHT22;11313;50.116;8.424;2024-03-22T15:08:08;26.20;41.70
22290;DHT22;11313;50.116;8.424;2024-03-22T15:10:33;26.20;41.70
22290;DHT22;11313;50.116;8.424;2024-03-22T15:12:59;26.20;41.80
22290;DHT22;11313;50.116;8.424;2024-03-22T15:15:25;26.20;41.80
22290;DHT22;11313;50.116;8.424;2024-03-22T15:17:50;26.10;41.80
22290;DHT22;11313;50.116;8.424;2024-03-22T15:20:16;26.10;41.80
22290;DHT22;11313;50.116;8.424;2024-03-22T15:22:42;26.10;41.80